TimeMST,TemperatureF,Dew PointF,Humidity,Sea Level PressureIn,VisibilityMPH,Wind Direction,Wind SpeedMPH,Gust SpeedMPH,PrecipitationIn,Events,Conditions,WindDirDegrees,DateUTC
12:53 AM,30.0,27.0,88,30.12,8.0,NE,11.5,-,0.00,Snow,Light Snow,50,2012-11-26 07:53:00
1:53 AM,28.0,25.0,88,30.15,8.0,NE,16.1,-,0.01,Snow,Light Snow,40,2012-11-26 08:53:00
2:53 AM,27.0,24.1,89,30.20,4.0,ENE,13.8,-,0.00,Snow,Light Snow,60,2012-11-26 09:53:00
3:53 AM,27.0,24.1,89,30.23,6.0,NNE,6.9,-,0.01,Snow,Light Snow,30,2012-11-26 10:53:00
4:33 AM,26.6,24.8,93,30.20,2.5,North,4.6,-,0.00,Snow,Light Snow,10,2012-11-26 11:33:00
4:35 AM,26.6,24.8,93,30.20,3.0,North,4.6,-,0.00,Snow,Light Snow,10,2012-11-26 11:35:00
4:53 AM,26.1,24.1,92,30.27,4.0,NNE,4.6,-,0.00,Snow,Light Snow,20,2012-11-26 11:53:00
5:01 AM,26.6,24.8,93,30.22,4.0,NNE,5.8,-,0.00,Snow,Light Snow,20,2012-11-26 12:01:00
5:32 AM,26.6,24.8,93,30.24,2.0,Calm,Calm,-,0.01,Snow,Light Snow,0,2012-11-26 12:32:00
5:53 AM,26.1,25.0,96,30.34,2.5,NNW,3.5,-,0.01,Snow,Light Snow,340,2012-11-26 12:53:00
6:03 AM,26.6,24.8,93,30.26,2.5,North,3.5,-,0.00,Snow,Light Snow,360,2012-11-26 13:03:00
6:12 AM,26.6,24.8,93,30.27,3.0,North,5.8,-,0.00,Snow,Light Snow,10,2012-11-26 13:12:00
6:53 AM,26.1,24.1,92,30.38,4.0,Calm,Calm,-,0.00,Snow,Light Snow,0,2012-11-26 13:53:00
7:13 AM,24.8,24.8,100,30.30,2.5,Calm,Calm,-,0.01,Snow,Light Snow,0,2012-11-26 14:13:00
7:24 AM,24.8,23.0,93,30.30,4.0,North,3.5,-,0.01,Snow,Light Snow,360,2012-11-26 14:24:00
7:53 AM,25.0,23.0,92,30.41,10.0,Calm,Calm,-,0.01,,Overcast,0,2012-11-26 14:53:00
8:28 AM,24.8,23.0,93,30.32,10.0,Calm,Calm,-,N/A,,Mostly Cloudy,0,2012-11-26 15:28:00
8:53 AM,26.1,24.1,92,30.43,10.0,Calm,Calm,-,N/A,,Overcast,0,2012-11-26 15:53:00
9:31 AM,26.6,24.8,93,30.35,10.0,Calm,Calm,-,N/A,,Overcast,0,2012-11-26 16:31:00
9:51 AM,28.4,24.8,86,30.35,10.0,Calm,Calm,-,N/A,,Overcast,0,2012-11-26 16:51:00
9:53 AM,28.0,25.0,88,30.44,10.0,Calm,Calm,-,N/A,,Overcast,0,2012-11-26 16:53:00
10:22 AM,28.4,24.8,86,30.35,10.0,South,3.5,-,N/A,,Overcast,170,2012-11-26 17:22:00
10:36 AM,28.4,24.8,86,30.34,10.0,SSW,3.5,-,N/A,,Mostly Cloudy,200,2012-11-26 17:36:00
10:53 AM,30.9,26.1,82,30.42,10.0,South,5.8,-,N/A,,Overcast,180,2012-11-26 17:53:00
11:02 AM,30.2,24.8,80,30.33,10.0,South,4.6,-,N/A,,Overcast,170,2012-11-26 18:02:00
11:53 AM,30.9,25.0,79,30.40,10.0,SE,4.6,-,N/A,,Overcast,140,2012-11-26 18:53:00
12:53 PM,33.1,25.0,72,30.36,10.0,SSW,6.9,-,N/A,,Overcast,210,2012-11-26 19:53:00
1:53 PM,34.0,24.1,67,30.35,10.0,SSE,5.8,-,N/A,,Overcast,160,2012-11-26 20:53:00
2:19 PM,35.6,24.8,65,30.25,10.0,South,6.9,-,N/A,,Scattered Clouds,190,2012-11-26 21:19:00
2:53 PM,35.1,24.1,64,30.33,10.0,South,5.8,-,N/A,,Clear,190,2012-11-26 21:53:00
3:53 PM,33.1,23.0,66,30.31,10.0,SE,10.4,-,N/A,,Clear,140,2012-11-26 22:53:00
4:53 PM,30.0,23.0,75,30.32,10.0,SE,9.2,-,N/A,,Clear,130,2012-11-26 23:53:00
5:53 PM,28.0,21.9,78,30.32,10.0,ESE,8.1,-,N/A,,Clear,120,2012-11-27 00:53:00
6:53 PM,27.0,21.9,81,30.31,10.0,ESE,9.2,-,N/A,,Clear,120,2012-11-27 01:53:00
7:53 PM,25.0,19.9,81,30.30,10.0,SE,9.2,-,N/A,,Clear,130,2012-11-27 02:53:00
8:53 PM,26.1,19.9,78,30.29,10.0,SE,5.8,-,N/A,,Clear,140,2012-11-27 03:53:00
9:53 PM,26.1,21.0,81,30.27,10.0,SSE,5.8,-,N/A,,Clear,160,2012-11-27 04:53:00
10:53 PM,27.0,21.0,78,30.25,10.0,South,6.9,-,N/A,,Clear,180,2012-11-27 05:53:00